sensor_id;sensor_type;location;lat;lon;timestamp;P1;durP1;ratioP1;P2;durP2;ratioP2
68050;SDS011;54839;51.364;7.246;2024-03-25T00:02:00;18.23;;;5.97;;
68050;SDS011;54839;51.364;7.246;2024-03-25T00:04:25;11.00;;;4.80;;
68050;SDS011;54839;51.364;7.246;2024-03-25T00:06:51;20.90;;;6.90;;
68050;SDS011;54839;51.364;7.246;2024-03-25T00:09:18;5.00;;;3.77;;
68050;SDS011;54839;51.364;7.246;2024-03-25T00:11:43;24.57;;;7.87;;
68050;SDS011;54839;51.364;7.246;2024-03-25T00:14:09;19.30;;;7.80;;
68050;SDS011;54839;51.364;7.246;2024-03-25T00:16:35;21.40;;;6.50;;
68050;SDS011;54839;51.364;7.246;2024-03-25T00:19:02;20.90;;;6.00;;
68050;SDS011;54839;51.364;7.246;2024-03-25T00:21:27;16.57;;;5.80;;
68050;SDS011;54839;51.364;7.246;2024-03-25T00:23:53;20.40;;;6.23;;
68050;SDS011;54839;51.364;7.246;2024-03-25T00:26:21;15.70;;;5.30;;
68050;SDS011;54839;51.364;7.246;2024-03-25T00:28:48;19.30;;;6.30;;
68050;SDS011;54839;51.364;7.246;2024-03-25T00:31:13;22.70;;;7.77;;
68050;SDS011;54839;51.364;7.246;2024-03-25T00:33:39;18.60;;;7.80;;
68050;SDS011;54839;51.364;7.246;2024-03-25T00:36:05;18.40;;;7.30;;
68050;SDS011;54839;51.364;7.246;2024-03-25T00:38:31;19.93;;;7.87;;
68050;SDS011;54839;51.364;7.246;2024-03-25T00:40:56;22.20;;;9.10;;
68050;SDS011;54839;51.364;7.246;2024-03-25T00:43:22;25.70;;;11.37;;
68050;SDS011;54839;51.364;7.246;2024-03-25T00:45:48;29.27;;;10.67;;
68050;SDS011;54839;51.364;7.246;2024-03-25T00:48:14;21.63;;;11.50;;
68050;SDS011;54839;51.364;7.246;2024-03-25T00:50:39;30.67;;;14.20;;
68050;SDS011;54839;51.364;7.246;2024-03-25T00:53:05;26.60;;;12.17;;
68050;SDS011;54839;51.364;7.246;2024-03-25T00:55:32;20.60;;;10.60;;
68050;SDS011;54839;51.364;7.246;2024-03-25T00:57:58;25.77;;;11.03;;
68050;SDS011;54839;51.364;7.246;2024-03-25T01:00:24;24.80;;;13.93;;
68050;SDS011;54839;51.364;7.246;2024-03-25T01:02:50;33.50;;;13.83;;
68050;SDS011;54839;51.364;7.246;2024-03-25T01:05:15;22.53;;;10.73;;
68050;SDS011;54839;51.364;7.246;2024-03-25T01:07:41;25.17;;;12.77;;
68050;SDS011;54839;51.364;7.246;2024-03-25T01:10:07;26.57;;;12.53;;
68050;SDS011;54839;51.364;7.246;2024-03-25T01:12:33;20.60;;;10.50;;
68050;SDS011;54839;51.364;7.246;2024-03-25T01:14:58;30.47;;;12.50;;
68050;SDS011;54839;51.364;7.246;2024-03-25T01:17:24;25.00;;;12.53;;
68050;SDS011;54839;51.364;7.246;2024-03-25T01:19:49;24.03;;;12.70;;
68050;SDS011;54839;51.364;7.246;2024-03-25T01:22:15;30.87;;;14.07;;
68050;SDS011;54839;51.364;7.246;2024-03-25T01:24:41;25.53;;;11.00;;
68050;SDS011;54839;51.364;7.246;2024-03-25T01:27:06;24.60;;;10.93;;
68050;SDS011;54839;51.364;7.246;2024-03-25T01:29:32;23.40;;;10.93;;
68050;SDS011;54839;51.364;7.246;2024-03-25T01:31:57;28.57;;;12.23;;
68050;SDS011;54839;51.364;7.246;2024-03-25T01:34:24;35.27;;;10.80;;
68050;SDS011;54839;51.364;7.246;2024-03-25T01:36:50;32.07;;;9.87;;
68050;SDS011;54839;51.364;7.246;2024-03-25T01:39:17;45.43;;;11.80;;
68050;SDS011;54839;51.364;7.246;2024-03-25T01:41:43;25.00;;;8.67;;
68050;SDS011;54839;51.364;7.246;2024-03-25T01:44:09;29.33;;;13.10;;
68050;SDS011;54839;51.364;7.246;2024-03-25T01:46:34;13.73;;;7.70;;
68050;SDS011;54839;51.364;7.246;2024-03-25T01:49:00;15.47;;;7.43;;
68050;SDS011;54839;51.364;7.246;2024-03-25T01:51:26;16.00;;;8.20;;
68050;SDS011;54839;51.364;7.246;2024-03-25T01:53:53;27.63;;;8.73;;
68050;SDS011;54839;51.364;7.246;2024-03-25T01:56:20;15.57;;;6.73;;
68050;SDS011;54839;51.364;7.246;2024-03-25T01:58:48;18.03;;;7.27;;
68050;SDS011;54839;51.364;7.246;2024-03-25T02:01:14;25.43;;;7.97;;
68050;SDS011;54839;51.364;7.246;2024-03-25T02:03:43;34.77;;;8.60;;
68050;SDS011;54839;51.364;7.246;2024-03-25T02:06:12;30.13;;;7.20;;
68050;SDS011;54839;51.364;7.246;2024-03-25T02:08:39;16.57;;;6.00;;
68050;SDS011;54839;51.364;7.246;2024-03-25T02:11:06;27.80;;;9.17;;
68050;SDS011;54839;51.364;7.246;2024-03-25T02:13:32;17.70;;;7.07;;
68050;SDS011;54839;51.364;7.246;2024-03-25T02:16:02;29.03;;;8.53;;
68050;SDS011;54839;51.364;7.246;2024-03-25T02:18:28;27.80;;;6.63;;
68050;SDS011;54839;51.364;7.246;2024-03-25T02:20:55;21.20;;;6.00;;
68050;SDS011;54839;51.364;7.246;2024-03-25T02:23:22;23.17;;;7.63;;
68050;SDS011;54839;51.364;7.246;2024-03-25T02:25:52;23.63;;;8.87;;
68050;SDS011;54839;51.364;7.246;2024-03-25T02:28:18;16.90;;;6.90;;
68050;SDS011;54839;51.364;7.246;2024-03-25T02:30:44;17.03;;;7.67;;
68050;SDS011;54839;51.364;7.246;2024-03-25T02:33:10;25.50;;;9.10;;
68050;SDS011;54839;51.364;7.246;2024-03-25T02:35:37;14.70;;;4.50;;
68050;SDS011;54839;51.364;7.246;2024-03-25T02:38:05;21.80;;;7.53;;
68050;SDS011;54839;51.364;7.246;2024-03-25T02:40:32;26.20;;;7.00;;
68050;SDS011;54839;51.364;7.246;2024-03-25T02:42:58;24.10;;;7.97;;
68050;SDS011;54839;51.364;7.246;2024-03-25T02:45:24;24.63;;;8.70;;
68050;SDS011;54839;51.364;7.246;2024-03-25T02:47:50;22.60;;;7.90;;
68050;SDS011;54839;51.364;7.246;2024-03-25T02:50:16;22.10;;;8.30;;
68050;SDS011;54839;51.364;7.246;2024-03-25T02:52:41;29.10;;;8.83;;
68050;SDS011;54839;51.364;7.246;2024-03-25T02:55:07;27.70;;;9.40;;
68050;SDS011;54839;51.364;7.246;2024-03-25T02:57:33;26.13;;;9.50;;
68050;SDS011;54839;51.364;7.246;2024-03-25T02:59:58;15.20;;;8.40;;
68050;SDS011;54839;51.364;7.246;2024-03-25T03:02:24;26.50;;;9.80;;
68050;SDS011;54839;51.364;7.246;2024-03-25T03:04:50;15.10;;;6.57;;
68050;SDS011;54839;51.364;7.246;2024-03-25T03:07:15;25.43;;;12.80;;
68050;SDS011;54839;51.364;7.246;2024-03-25T03:09:41;28.17;;;13.13;;
68050;SDS011;54839;51.364;7.246;2024-03-25T03:12:07;22.63;;;13.30;;
68050;SDS011;54839;51.364;7.246;2024-03-25T03:14:33;39.17;;;15.10;;
68050;SDS011;54839;51.364;7.246;2024-03-25T03:16:59;24.70;;;14.50;;
68050;SDS011;54839;51.364;7.246;2024-03-25T03:19:25;28.80;;;15.90;;
68050;SDS011;54839;51.364;7.246;2024-03-25T03:21:51;31.17;;;13.20;;
68050;SDS011;54839;51.364;7.246;2024-03-25T03:24:17;15.87;;;9.07;;
68050;SDS011;54839;51.364;7.246;2024-03-25T03:26:43;23.03;;;12.03;;
68050;SDS011;54839;51.364;7.246;2024-03-25T03:29:09;29.63;;;12.53;;
68050;SDS011;54839;51.364;7.246;2024-03-25T03:31:35;34.97;;;12.50;;
68050;SDS011;54839;51.364;7.246;2024-03-25T03:34:01;30.07;;;11.10;;
68050;SDS011;54839;51.364;7.246;2024-03-25T03:36:27;24.13;;;10.10;;
68050;SDS011;54839;51.364;7.246;2024-03-25T03:38:52;27.63;;;11.40;;
68050;SDS011;54839;51.364;7.246;2024-03-25T03:41:19;34.80;;;11.30;;
68050;SDS011;54839;51.364;7.246;2024-03-25T03:43:45;21.70;;;11.97;;
68050;SDS011;54839;51.364;7.246;2024-03-25T03:46:10;26.73;;;12.67;;
68050;SDS011;54839;51.364;7.246;2024-03-25T03:48:36;18.07;;;9.83;;
68050;SDS011;54839;51.364;7.246;2024-03-25T03:51:03;28.00;;;12.90;;
68050;SDS011;54839;51.364;7.246;2024-03-25T03:53:29;25.70;;;11.30;;
68050;SDS011;54839;51.364;7.246;2024-03-25T03:55:55;29.07;;;13.90;;
68050;SDS011;54839;51.364;7.246;2024-03-25T03:58:22;29.23;;;13.07;;
68050;SDS011;54839;51.364;7.246;2024-03-25T04:00:48;34.73;;;14.33;;
68050;SDS011;54839;51.364;7.246;2024-03-25T04:03:14;29.93;;;13.57;;
68050;SDS011;54839;51.364;7.246;2024-03-25T04:05:40;31.27;;;15.20;;
68050;SDS011;54839;51.364;7.246;2024-03-25T04:08:06;34.17;;;14.20;;
68050;SDS011;54839;51.364;7.246;2024-03-25T04:10:31;21.30;;;11.90;;
68050;SDS011;54839;51.364;7.246;2024-03-25T04:12:57;25.40;;;12.53;;
68050;SDS011;54839;51.364;7.246;2024-03-25T04:15:23;26.67;;;13.40;;
68050;SDS011;54839;51.364;7.246;2024-03-25T04:17:48;29.10;;;14.17;;
68050;SDS011;54839;51.364;7.246;2024-03-25T04:20:14;23.13;;;11.77;;
68050;SDS011;54839;51.364;7.246;2024-03-25T04:22:44;31.70;;;15.70;;
68050;SDS011;54839;51.364;7.246;2024-03-25T04:25:10;31.77;;;13.00;;
68050;SDS011;54839;51.364;7.246;2024-03-25T04:27:39;24.77;;;11.20;;
68050;SDS011;54839;51.364;7.246;2024-03-25T04:30:06;24.90;;;12.77;;
68050;SDS011;54839;51.364;7.246;2024-03-25T04:32:33;20.60;;;11.70;;
68050;SDS011;54839;51.364;7.246;2024-03-25T04:34:59;29.70;;;14.00;;
68050;SDS011;54839;51.364;7.246;2024-03-25T04:37:25;32.53;;;13.33;;
68050;SDS011;54839;51.364;7.246;2024-03-25T04:39:53;29.10;;;13.97;;
68050;SDS011;54839;51.364;7.246;2024-03-25T04:42:19;27.50;;;13.77;;
68050;SDS011;54839;51.364;7.246;2024-03-25T04:44:45;31.67;;;14.30;;
68050;SDS011;54839;51.364;7.246;2024-03-25T04:47:11;28.13;;;12.07;;
68050;SDS011;54839;51.364;7.246;2024-03-25T04:49:37;23.60;;;11.20;;
68050;SDS011;54839;51.364;7.246;2024-03-25T04:52:03;29.63;;;14.40;;
68050;SDS011;54839;51.364;7.246;2024-03-25T04:54:29;33.13;;;14.03;;
68050;SDS011;54839;51.364;7.246;2024-03-25T04:56:55;23.00;;;13.33;;
68050;SDS011;54839;51.364;7.246;2024-03-25T04:59:20;27.50;;;14.30;;
68050;SDS011;54839;51.364;7.246;2024-03-25T05:01:46;25.00;;;12.10;;
68050;SDS011;54839;51.364;7.246;2024-03-25T05:04:12;30.77;;;11.57;;
68050;SDS011;54839;51.364;7.246;2024-03-25T05:06:38;26.60;;;14.07;;
68050;SDS011;54839;51.364;7.246;2024-03-25T05:09:03;20.60;;;11.50;;
68050;SDS011;54839;51.364;7.246;2024-03-25T05:11:31;28.87;;;11.97;;
68050;SDS011;54839;51.364;7.246;2024-03-25T05:13:57;21.10;;;9.90;;
68050;SDS011;54839;51.364;7.246;2024-03-25T05:16:22;27.23;;;12.43;;
68050;SDS011;54839;51.364;7.246;2024-03-25T05:18:48;18.67;;;10.77;;
68050;SDS011;54839;51.364;7.246;2024-03-25T05:21:14;24.60;;;10.83;;
68050;SDS011;54839;51.364;7.246;2024-03-25T05:23:39;23.73;;;11.87;;
68050;SDS011;54839;51.364;7.246;2024-03-25T05:26:05;26.53;;;9.83;;
68050;SDS011;54839;51.364;7.246;2024-03-25T05:28:31;24.83;;;12.13;;
68050;SDS011;54839;51.364;7.246;2024-03-25T05:30:56;27.10;;;11.03;;
68050;SDS011;54839;51.364;7.246;2024-03-25T05:33:29;27.37;;;12.87;;
68050;SDS011;54839;51.364;7.246;2024-03-25T05:35:55;23.60;;;10.07;;
68050;SDS011;54839;51.364;7.246;2024-03-25T05:38:21;20.10;;;9.23;;
68050;SDS011;54839;51.364;7.246;2024-03-25T05:40:46;21.23;;;10.00;;
68050;SDS011;54839;51.364;7.246;2024-03-25T05:43:12;20.50;;;10.60;;
68050;SDS011;54839;51.364;7.246;2024-03-25T05:45:37;23.03;;;10.00;;
68050;SDS011;54839;51.364;7.246;2024-03-25T05:48:03;21.00;;;9.33;;
68050;SDS011;54839;51.364;7.246;2024-03-25T05:50:29;13.40;;;8.90;;
68050;SDS011;54839;51.364;7.246;2024-03-25T05:52:55;25.67;;;9.33;;
68050;SDS011;54839;51.364;7.246;2024-03-25T05:55:20;20.47;;;8.90;;
68050;SDS011;54839;51.364;7.246;2024-03-25T05:57:46;23.50;;;8.90;;
68050;SDS011;54839;51.364;7.246;2024-03-25T06:00:12;21.87;;;10.13;;
68050;SDS011;54839;51.364;7.246;2024-03-25T06:02:38;22.83;;;10.40;;
68050;SDS011;54839;51.364;7.246;2024-03-25T06:05:04;21.90;;;9.20;;
68050;SDS011;54839;51.364;7.246;2024-03-25T06:07:30;21.40;;;9.47;;
68050;SDS011;54839;51.364;7.246;2024-03-25T06:09:56;35.50;;;8.90;;
68050;SDS011;54839;51.364;7.246;2024-03-25T06:12:21;16.37;;;8.97;;
68050;SDS011;54839;51.364;7.246;2024-03-25T06:14:47;20.30;;;8.30;;
68050;SDS011;54839;51.364;7.246;2024-03-25T06:17:13;27.50;;;9.17;;
68050;SDS011;54839;51.364;7.246;2024-03-25T06:19:38;26.43;;;8.33;;
68050;SDS011;54839;51.364;7.246;2024-03-25T06:22:04;20.17;;;9.67;;
68050;SDS011;54839;51.364;7.246;2024-03-25T06:24:29;18.80;;;8.83;;
68050;SDS011;54839;51.364;7.246;2024-03-25T06:26:55;32.53;;;7.43;;
68050;SDS011;54839;51.364;7.246;2024-03-25T06:29:21;18.93;;;7.97;;
68050;SDS011;54839;51.364;7.246;2024-03-25T06:31:47;24.40;;;7.77;;
68050;SDS011;54839;51.364;7.246;2024-03-25T06:34:48;24.30;;;8.90;;
68050;SDS011;54839;51.364;7.246;2024-03-25T06:37:13;26.90;;;7.10;;
68050;SDS011;54839;51.364;7.246;2024-03-25T06:39:39;21.60;;;7.03;;
68050;SDS011;54839;51.364;7.246;2024-03-25T06:42:05;26.70;;;7.40;;
68050;SDS011;54839;51.364;7.246;2024-03-25T06:44:30;25.63;;;9.30;;
68050;SDS011;54839;51.364;7.246;2024-03-25T06:46:56;17.33;;;6.50;;
68050;SDS011;54839;51.364;7.246;2024-03-25T06:49:22;21.63;;;8.07;;
68050;SDS011;54839;51.364;7.246;2024-03-25T06:51:47;16.60;;;6.50;;
68050;SDS011;54839;51.364;7.246;2024-03-25T06:54:13;18.50;;;6.60;;
68050;SDS011;54839;51.364;7.246;2024-03-25T06:56:38;14.07;;;5.97;;
68050;SDS011;54839;51.364;7.246;2024-03-25T06:59:05;22.97;;;8.10;;
68050;SDS011;54839;51.364;7.246;2024-03-25T07:01:31;13.40;;;6.03;;
68050;SDS011;54839;51.364;7.246;2024-03-25T07:03:57;16.50;;;6.50;;
68050;SDS011;54839;51.364;7.246;2024-03-25T07:06:22;16.97;;;6.90;;
68050;SDS011;54839;51.364;7.246;2024-03-25T07:08:50;17.47;;;6.53;;
68050;SDS011;54839;51.364;7.246;2024-03-25T07:11:16;15.40;;;7.37;;
68050;SDS011;54839;51.364;7.246;2024-03-25T07:13:42;20.17;;;6.80;;
68050;SDS011;54839;51.364;7.246;2024-03-25T07:16:08;17.47;;;5.67;;
68050;SDS011;54839;51.364;7.246;2024-03-25T07:18:34;14.70;;;5.80;;
68050;SDS011;54839;51.364;7.246;2024-03-25T07:20:59;22.20;;;5.83;;
68050;SDS011;54839;51.364;7.246;2024-03-25T07:23:25;23.20;;;6.77;;
68050;SDS011;54839;51.364;7.246;2024-03-25T07:25:50;18.00;;;5.20;;
68050;SDS011;54839;51.364;7.246;2024-03-25T07:28:16;14.03;;;5.33;;
68050;SDS011;54839;51.364;7.246;2024-03-25T07:30:41;24.27;;;6.70;;
68050;SDS011;54839;51.364;7.246;2024-03-25T07:33:07;25.97;;;5.67;;
68050;SDS011;54839;51.364;7.246;2024-03-25T07:35:33;20.63;;;5.93;;
68050;SDS011;54839;51.364;7.246;2024-03-25T07:37:58;25.37;;;6.77;;
68050;SDS011;54839;51.364;7.246;2024-03-25T07:40:25;23.13;;;6.40;;
68050;SDS011;54839;51.364;7.246;2024-03-25T07:42:51;13.80;;;5.60;;
68050;SDS011;54839;51.364;7.246;2024-03-25T07:45:17;21.70;;;5.50;;
68050;SDS011;54839;51.364;7.246;2024-03-25T07:47:42;15.97;;;5.97;;
68050;SDS011;54839;51.364;7.246;2024-03-25T07:50:08;17.53;;;6.30;;
68050;SDS011;54839;51.364;7.246;2024-03-25T07:52:34;21.13;;;6.27;;
68050;SDS011;54839;51.364;7.246;2024-03-25T07:55:05;18.07;;;7.23;;
68050;SDS011;54839;51.364;7.246;2024-03-25T07:57:33;20.47;;;5.80;;
68050;SDS011;54839;51.364;7.246;2024-03-25T07:59:59;24.30;;;7.07;;
68050;SDS011;54839;51.364;7.246;2024-03-25T08:02:25;18.80;;;8.77;;
68050;SDS011;54839;51.364;7.246;2024-03-25T08:04:50;19.77;;;7.50;;
68050;SDS011;54839;51.364;7.246;2024-03-25T08:07:16;26.97;;;7.67;;
68050;SDS011;54839;51.364;7.246;2024-03-25T08:09:42;22.93;;;8.00;;
68050;SDS011;54839;51.364;7.246;2024-03-25T08:12:07;23.60;;;8.37;;
68050;SDS011;54839;51.364;7.246;2024-03-25T08:14:33;20.37;;;6.97;;
68050;SDS011;54839;51.364;7.246;2024-03-25T08:16:58;24.17;;;9.17;;
68050;SDS011;54839;51.364;7.246;2024-03-25T08:19:24;23.50;;;9.30;;
68050;SDS011;54839;51.364;7.246;2024-03-25T08:21:50;21.07;;;7.17;;
68050;SDS011;54839;51.364;7.246;2024-03-25T08:24:15;23.73;;;8.27;;
68050;SDS011;54839;51.364;7.246;2024-03-25T08:26:41;21.43;;;7.30;;
68050;SDS011;54839;51.364;7.246;2024-03-25T08:29:07;17.17;;;7.60;;
68050;SDS011;54839;51.364;7.246;2024-03-25T08:31:33;15.77;;;7.30;;
68050;SDS011;54839;51.364;7.246;2024-03-25T08:33:58;22.07;;;7.67;;
68050;SDS011;54839;51.364;7.246;2024-03-25T08:36:24;15.30;;;6.17;;
68050;SDS011;54839;51.364;7.246;2024-03-25T08:38:49;24.53;;;6.43;;
68050;SDS011;54839;51.364;7.246;2024-03-25T08:41:15;12.90;;;5.03;;
68050;SDS011;54839;51.364;7.246;2024-03-25T08:43:41;12.77;;;5.10;;
68050;SDS011;54839;51.364;7.246;2024-03-25T08:46:06;15.80;;;3.83;;
68050;SDS011;54839;51.364;7.246;2024-03-25T08:48:32;17.37;;;4.77;;
68050;SDS011;54839;51.364;7.246;2024-03-25T08:50:57;16.70;;;3.30;;
68050;SDS011;54839;51.364;7.246;2024-03-25T08:53:23;22.93;;;3.60;;
68050;SDS011;54839;51.364;7.246;2024-03-25T08:55:49;15.90;;;3.90;;
68050;SDS011;54839;51.364;7.246;2024-03-25T08:58:14;10.13;;;4.30;;
68050;SDS011;54839;51.364;7.246;2024-03-25T09:00:41;13.47;;;3.57;;
68050;SDS011;54839;51.364;7.246;2024-03-25T09:03:07;12.63;;;3.73;;
68050;SDS011;54839;51.364;7.246;2024-03-25T09:05:33;16.77;;;5.17;;
68050;SDS011;54839;51.364;7.246;2024-03-25T09:07:59;13.73;;;3.30;;
68050;SDS011;54839;51.364;7.246;2024-03-25T09:10:25;10.43;;;4.03;;
68050;SDS011;54839;51.364;7.246;2024-03-25T09:13:10;9.90;;;3.30;;
68050;SDS011;54839;51.364;7.246;2024-03-25T09:15:36;7.17;;;3.23;;
68050;SDS011;54839;51.364;7.246;2024-03-25T09:18:01;10.33;;;3.97;;
68050;SDS011;54839;51.364;7.246;2024-03-25T09:20:27;14.07;;;3.50;;
68050;SDS011;54839;51.364;7.246;2024-03-25T09:22:53;7.37;;;2.40;;
68050;SDS011;54839;51.364;7.246;2024-03-25T09:25:19;17.00;;;3.40;;
68050;SDS011;54839;51.364;7.246;2024-03-25T09:27:48;16.77;;;2.70;;
68050;SDS011;54839;51.364;7.246;2024-03-25T09:30:14;8.80;;;3.53;;
68050;SDS011;54839;51.364;7.246;2024-03-25T09:32:40;5.50;;;2.13;;
68050;SDS011;54839;51.364;7.246;2024-03-25T09:35:07;15.93;;;2.50;;
68050;SDS011;54839;51.364;7.246;2024-03-25T09:37:36;16.13;;;2.77;;
68050;SDS011;54839;51.364;7.246;2024-03-25T09:40:03;8.07;;;2.60;;
68050;SDS011;54839;51.364;7.246;2024-03-25T09:42:55;7.63;;;2.40;;
68050;SDS011;54839;51.364;7.246;2024-03-25T09:45:21;6.00;;;2.23;;
68050;SDS011;54839;51.364;7.246;2024-03-25T09:47:50;9.47;;;2.30;;
68050;SDS011;54839;51.364;7.246;2024-03-25T09:50:16;4.73;;;2.40;;
68050;SDS011;54839;51.364;7.246;2024-03-25T09:52:50;6.80;;;3.07;;
68050;SDS011;54839;51.364;7.246;2024-03-25T09:55:16;7.53;;;2.37;;
68050;SDS011;54839;51.364;7.246;2024-03-25T09:57:42;11.20;;;2.20;;
68050;SDS011;54839;51.364;7.246;2024-03-25T10:00:09;9.10;;;2.23;;
68050;SDS011;54839;51.364;7.246;2024-03-25T10:02:40;11.63;;;2.70;;
68050;SDS011;54839;51.364;7.246;2024-03-25T10:05:06;9.40;;;2.33;;
68050;SDS011;54839;51.364;7.246;2024-03-25T10:07:32;8.13;;;2.93;;
68050;SDS011;54839;51.364;7.246;2024-03-25T10:09:59;7.03;;;2.37;;
68050;SDS011;54839;51.364;7.246;2024-03-25T10:12:25;8.90;;;2.17;;
68050;SDS011;54839;51.364;7.246;2024-03-25T10:14:50;13.00;;;4.53;;
68050;SDS011;54839;51.364;7.246;2024-03-25T10:17:16;9.50;;;3.23;;
68050;SDS011;54839;51.364;7.246;2024-03-25T10:19:42;6.43;;;1.87;;
68050;SDS011;54839;51.364;7.246;2024-03-25T10:22:08;8.73;;;2.40;;
68050;SDS011;54839;51.364;7.246;2024-03-25T10:24:40;12.60;;;3.07;;
68050;SDS011;54839;51.364;7.246;2024-03-25T10:27:25;11.30;;;2.77;;
68050;SDS011;54839;51.364;7.246;2024-03-25T10:29:51;8.73;;;2.83;;
68050;SDS011;54839;51.364;7.246;2024-03-25T10:32:20;7.60;;;2.40;;
68050;SDS011;54839;51.364;7.246;2024-03-25T10:34:49;10.53;;;2.70;;
68050;SDS011;54839;51.364;7.246;2024-03-25T10:37:15;8.33;;;2.63;;
68050;SDS011;54839;51.364;7.246;2024-03-25T10:39:49;13.33;;;2.60;;
68050;SDS011;54839;51.364;7.246;2024-03-25T10:42:18;11.63;;;3.00;;
68050;SDS011;54839;51.364;7.246;2024-03-25T10:44:46;5.07;;;1.97;;
68050;SDS011;54839;51.364;7.246;2024-03-25T10:47:14;7.90;;;2.60;;
68050;SDS011;54839;51.364;7.246;2024-03-25T10:49:49;4.20;;;1.93;;
68050;SDS011;54839;51.364;7.246;2024-03-25T10:52:19;7.50;;;2.30;;
68050;SDS011;54839;51.364;7.246;2024-03-25T10:54:49;7.50;;;2.60;;
68050;SDS011;54839;51.364;7.246;2024-03-25T10:57:15;10.10;;;2.57;;
68050;SDS011;54839;51.364;7.246;2024-03-25T10:59:42;10.90;;;2.60;;
68050;SDS011;54839;51.364;7.246;2024-03-25T11:02:09;6.67;;;2.10;;
68050;SDS011;54839;51.364;7.246;2024-03-25T11:04:36;12.43;;;2.60;;
68050;SDS011;54839;51.364;7.246;2024-03-25T11:07:24;7.33;;;2.00;;
68050;SDS011;54839;51.364;7.246;2024-03-25T11:10:04;8.53;;;3.10;;
68050;SDS011;54839;51.364;7.246;2024-03-25T11:12:32;9.13;;;2.63;;
68050;SDS011;54839;51.364;7.246;2024-03-25T11:15:02;9.27;;;2.10;;
68050;SDS011;54839;51.364;7.246;2024-03-25T11:17:29;7.30;;;2.67;;
68050;SDS011;54839;51.364;7.246;2024-03-25T11:20:05;4.50;;;2.03;;
68050;SDS011;54839;51.364;7.246;2024-03-25T11:22:32;5.43;;;2.00;;
68050;SDS011;54839;51.364;7.246;2024-03-25T11:25:04;12.00;;;2.80;;
68050;SDS011;54839;51.364;7.246;2024-03-25T11:27:31;5.73;;;2.07;;
68050;SDS011;54839;51.364;7.246;2024-03-25T11:29:59;9.47;;;2.67;;
68050;SDS011;54839;51.364;7.246;2024-03-25T11:32:24;3.67;;;1.77;;
68050;SDS011;54839;51.364;7.246;2024-03-25T11:34:52;9.80;;;2.20;;
68050;SDS011;54839;51.364;7.246;2024-03-25T11:37:18;7.83;;;3.10;;
68050;SDS011;54839;51.364;7.246;2024-03-25T11:39:43;11.93;;;3.20;;
68050;SDS011;54839;51.364;7.246;2024-03-25T11:42:09;7.60;;;2.37;;
68050;SDS011;54839;51.364;7.246;2024-03-25T11:44:38;7.53;;;3.07;;
68050;SDS011;54839;51.364;7.246;2024-03-25T11:47:05;8.57;;;2.20;;
68050;SDS011;54839;51.364;7.246;2024-03-25T11:49:36;5.60;;;2.60;;
68050;SDS011;54839;51.364;7.246;2024-03-25T11:52:06;10.43;;;3.13;;
68050;SDS011;54839;51.364;7.246;2024-03-25T11:54:32;6.50;;;2.50;;
68050;SDS011;54839;51.364;7.246;2024-03-25T11:56:57;4.60;;;2.10;;
68050;SDS011;54839;51.364;7.246;2024-03-25T11:59:24;6.57;;;3.00;;
68050;SDS011;54839;51.364;7.246;2024-03-25T12:01:50;6.00;;;2.80;;
68050;SDS011;54839;51.364;7.246;2024-03-25T12:04:16;6.97;;;2.60;;
68050;SDS011;54839;51.364;7.246;2024-03-25T12:06:47;9.60;;;2.70;;
68050;SDS011;54839;51.364;7.246;2024-03-25T12:09:12;8.10;;;2.77;;
68050;SDS011;54839;51.364;7.246;2024-03-25T12:11:57;6.60;;;2.17;;
68050;SDS011;54839;51.364;7.246;2024-03-25T12:14:23;6.17;;;2.67;;
68050;SDS011;54839;51.364;7.246;2024-03-25T12:16:53;8.43;;;3.67;;
68050;SDS011;54839;51.364;7.246;2024-03-25T12:19:19;5.03;;;1.70;;
68050;SDS011;54839;51.364;7.246;2024-03-25T12:21:45;7.30;;;3.10;;
68050;SDS011;54839;51.364;7.246;2024-03-25T12:24:13;6.60;;;2.33;;
68050;SDS011;54839;51.364;7.246;2024-03-25T12:26:39;8.70;;;2.40;;
68050;SDS011;54839;51.364;7.246;2024-03-25T12:29:05;8.73;;;3.30;;
68050;SDS011;54839;51.364;7.246;2024-03-25T12:31:31;5.40;;;2.70;;
68050;SDS011;54839;51.364;7.246;2024-03-25T12:33:56;6.00;;;3.13;;
68050;SDS011;54839;51.364;7.246;2024-03-25T12:36:22;9.63;;;2.73;;
68050;SDS011;54839;51.364;7.246;2024-03-25T12:38:54;7.20;;;2.47;;
68050;SDS011;54839;51.364;7.246;2024-03-25T12:41:22;4.23;;;2.80;;
68050;SDS011;54839;51.364;7.246;2024-03-25T12:43:49;10.07;;;2.00;;
68050;SDS011;54839;51.364;7.246;2024-03-25T12:46:16;7.23;;;1.90;;
68050;SDS011;54839;51.364;7.246;2024-03-25T12:48:42;5.47;;;2.37;;
68050;SDS011;54839;51.364;7.246;2024-03-25T12:51:14;6.70;;;2.40;;
68050;SDS011;54839;51.364;7.246;2024-03-25T12:53:41;6.30;;;2.57;;
68050;SDS011;54839;51.364;7.246;2024-03-25T12:56:08;7.27;;;2.37;;
68050;SDS011;54839;51.364;7.246;2024-03-25T12:58:34;8.63;;;2.37;;
68050;SDS011;54839;51.364;7.246;2024-03-25T13:00:59;8.53;;;2.27;;
68050;SDS011;54839;51.364;7.246;2024-03-25T13:03:25;6.10;;;2.27;;
68050;SDS011;54839;51.364;7.246;2024-03-25T13:05:51;4.17;;;2.23;;
68050;SDS011;54839;51.364;7.246;2024-03-25T13:08:17;4.53;;;2.20;;
68050;SDS011;54839;51.364;7.246;2024-03-25T13:10:42;8.20;;;2.57;;
68050;SDS011;54839;51.364;7.246;2024-03-25T13:13:08;4.00;;;2.27;;
68050;SDS011;54839;51.364;7.246;2024-03-25T13:15:34;4.70;;;1.80;;
68050;SDS011;54839;51.364;7.246;2024-03-25T13:18:00;6.20;;;2.43;;
68050;SDS011;54839;51.364;7.246;2024-03-25T13:20:26;7.53;;;2.43;;
68050;SDS011;54839;51.364;7.246;2024-03-25T13:22:54;6.23;;;2.37;;
68050;SDS011;54839;51.364;7.246;2024-03-25T13:25:25;7.30;;;2.80;;
68050;SDS011;54839;51.364;7.246;2024-03-25T13:27:52;5.63;;;2.50;;
68050;SDS011;54839;51.364;7.246;2024-03-25T13:30:18;8.57;;;2.90;;
68050;SDS011;54839;51.364;7.246;2024-03-25T13:32:43;8.40;;;2.30;;
68050;SDS011;54839;51.364;7.246;2024-03-25T13:35:09;6.93;;;2.00;;
68050;SDS011;54839;51.364;7.246;2024-03-25T13:37:34;4.63;;;1.63;;
68050;SDS011;54839;51.364;7.246;2024-03-25T13:40:00;5.43;;;1.90;;
68050;SDS011;54839;51.364;7.246;2024-03-25T13:42:25;5.60;;;3.10;;
68050;SDS011;54839;51.364;7.246;2024-03-25T13:44:51;7.10;;;2.10;;
68050;SDS011;54839;51.364;7.246;2024-03-25T13:47:17;5.17;;;1.50;;
68050;SDS011;54839;51.364;7.246;2024-03-25T13:49:43;5.80;;;1.53;;
68050;SDS011;54839;51.364;7.246;2024-03-25T13:52:08;4.70;;;2.60;;
68050;SDS011;54839;51.364;7.246;2024-03-25T13:54:34;9.50;;;2.87;;
68050;SDS011;54839;51.364;7.246;2024-03-25T13:56:59;6.57;;;2.30;;
68050;SDS011;54839;51.364;7.246;2024-03-25T13:59:25;5.67;;;2.00;;
68050;SDS011;54839;51.364;7.246;2024-03-25T14:01:51;8.53;;;2.50;;
68050;SDS011;54839;51.364;7.246;2024-03-25T14:04:18;10.97;;;2.40;;
68050;SDS011;54839;51.364;7.246;2024-03-25T14:06:44;6.67;;;3.37;;
68050;SDS011;54839;51.364;7.246;2024-03-25T14:09:24;3.10;;;1.80;;
68050;SDS011;54839;51.364;7.246;2024-03-25T14:11:50;5.00;;;2.17;;
68050;SDS011;54839;51.364;7.246;2024-03-25T14:14:16;3.70;;;2.03;;
68050;SDS011;54839;51.364;7.246;2024-03-25T14:16:41;3.13;;;1.60;;
68050;SDS011;54839;51.364;7.246;2024-03-25T14:19:07;6.03;;;1.90;;
68050;SDS011;54839;51.364;7.246;2024-03-25T14:21:33;8.60;;;2.20;;
68050;SDS011;54839;51.364;7.246;2024-03-25T14:23:58;5.60;;;2.50;;
68050;SDS011;54839;51.364;7.246;2024-03-25T14:26:24;7.30;;;3.10;;
68050;SDS011;54839;51.364;7.246;2024-03-25T14:28:49;5.90;;;2.00;;
68050;SDS011;54839;51.364;7.246;2024-03-25T14:31:15;6.77;;;2.00;;
68050;SDS011;54839;51.364;7.246;2024-03-25T14:33:41;3.90;;;1.73;;